createdAt,value
2023-04-18T00:00:14.757Z,8.20
2023-04-18T00:01:14.722Z,8.80
2023-04-18T00:02:14.768Z,8.00
2023-04-18T00:03:14.954Z,8.40
2023-04-18T00:04:15.182Z,8.60
2023-04-18T00:05:14.705Z,7.90
2023-04-18T00:06:14.679Z,8.20
2023-04-18T00:07:14.641Z,8.40
2023-04-18T00:08:14.662Z,7.90
2023-04-18T00:09:14.731Z,8.10
2023-04-18T00:10:14.662Z,8.70
2023-04-18T00:11:14.607Z,8.40
2023-04-18T00:12:14.613Z,8.30
2023-04-18T00:13:14.610Z,7.90
2023-04-18T00:14:14.938Z,8.20
2023-04-18T00:15:14.587Z,8.10
2023-04-18T00:16:14.652Z,7.90
2023-04-18T00:17:14.588Z,7.80
2023-04-18T00:18:14.561Z,8.20
2023-04-18T00:19:14.520Z,8.70
2023-04-18T00:20:14.550Z,9.00
2023-04-18T00:21:14.509Z,8.00
2023-04-18T00:22:14.511Z,8.30
2023-04-18T00:23:14.492Z,7.60
2023-04-18T00:24:14.644Z,8.20
2023-04-18T00:25:14.457Z,8.10
2023-04-18T00:26:14.487Z,7.70
2023-04-18T00:27:14.431Z,7.90
2023-04-18T00:28:14.466Z,7.90
2023-04-18T00:29:14.420Z,8.00
2023-04-18T00:30:14.430Z,8.20
2023-04-18T00:31:14.427Z,8.50
2023-04-18T00:32:14.425Z,8.70
2023-04-18T00:33:14.376Z,7.70
2023-04-18T00:34:14.666Z,8.00
2023-04-18T00:35:14.376Z,7.80
2023-04-18T00:36:14.372Z,8.20
2023-04-18T00:37:14.364Z,8.50
2023-04-18T00:38:14.365Z,7.90
2023-04-18T00:39:14.312Z,7.50
2023-04-18T00:40:14.330Z,7.40
2023-04-18T00:41:14.290Z,7.50
2023-04-18T00:42:14.301Z,7.30
2023-04-18T00:43:14.394Z,7.30
2023-04-18T00:44:14.616Z,7.80
2023-04-18T00:45:14.267Z,7.90
2023-04-18T00:46:14.299Z,7.50
2023-04-18T00:47:14.234Z,7.50
2023-04-18T00:48:14.256Z,7.80
2023-04-18T00:49:14.238Z,7.90
2023-04-18T00:50:14.238Z,7.70
2023-04-18T00:51:14.197Z,7.30
2023-04-18T00:52:14.198Z,7.40
2023-04-18T00:53:14.173Z,7.90
2023-04-18T00:54:14.511Z,7.40
2023-04-18T00:55:14.147Z,8.00
2023-04-18T00:56:14.189Z,8.00
2023-04-18T00:57:14.121Z,7.40
2023-04-18T00:58:14.134Z,7.30
2023-04-18T00:59:14.294Z,7.90
2023-04-18T01:00:14.118Z,7.50
2023-04-18T01:01:14.150Z,7.50
2023-04-18T01:02:14.125Z,7.60
2023-04-18T01:03:14.176Z,7.80
2023-04-18T01:04:14.575Z,7.80
2023-04-18T01:05:14.063Z,7.80
2023-04-18T01:06:14.078Z,7.30
2023-04-18T01:07:14.016Z,7.00
2023-04-18T01:08:14.035Z,7.60
2023-04-18T01:09:14.075Z,7.50
2023-04-18T01:10:14.037Z,7.90
2023-04-18T01:11:13.984Z,7.60
2023-04-18T01:12:14.003Z,7.60
2023-04-18T01:13:13.959Z,7.10
2023-04-18T01:14:14.176Z,7.90
2023-04-18T01:15:13.938Z,7.40
2023-04-18T01:16:14.042Z,7.70
2023-04-18T01:17:13.939Z,7.60
2023-04-18T01:18:13.929Z,7.20
2023-04-18T01:19:13.897Z,7.00
2023-04-18T01:20:13.915Z,7.20
2023-04-18T01:21:13.895Z,7.40
2023-04-18T01:22:13.890Z,7.80
2023-04-18T01:23:13.857Z,7.40
2023-04-18T01:24:14.059Z,7.70
2023-04-18T01:25:13.834Z,7.00
2023-04-18T01:26:13.904Z,7.50
2023-04-18T01:27:13.881Z,6.90
2023-04-18T01:28:13.840Z,7.30
2023-04-18T01:29:13.804Z,7.40
2023-04-18T01:30:13.819Z,7.20
2023-04-18T01:31:13.824Z,7.40
2023-04-18T01:32:13.813Z,7.40
2023-04-18T01:33:13.755Z,7.10
2023-04-18T01:34:13.948Z,6.90
2023-04-18T01:35:13.736Z,7.30
2023-04-18T01:36:13.742Z,6.70
2023-04-18T01:37:13.720Z,7.50
2023-04-18T01:38:13.751Z,7.20
2023-04-18T01:39:13.718Z,7.40
2023-04-18T01:40:13.709Z,7.20
2023-04-18T01:41:13.670Z,7.50
2023-04-18T01:42:13.689Z,7.10
2023-04-18T01:43:13.672Z,7.60
2023-04-18T01:44:13.948Z,6.70
2023-04-18T01:45:13.653Z,7.80
2023-04-18T01:46:13.676Z,7.20
2023-04-18T01:47:13.604Z,7.80
2023-04-18T01:48:13.634Z,7.50
2023-04-18T01:49:13.618Z,8.00
2023-04-18T01:50:13.645Z,7.50
2023-04-18T01:51:13.576Z,7.20
2023-04-18T01:52:13.577Z,6.80
2023-04-18T01:53:13.550Z,7.20
2023-04-18T01:54:13.843Z,7.40
2023-04-18T01:55:13.522Z,7.80
2023-04-18T01:56:13.545Z,8.10
2023-04-18T01:57:13.531Z,7.30
2023-04-18T01:58:13.511Z,8.10
2023-04-18T01:59:13.482Z,7.30
2023-04-18T02:00:13.517Z,7.30
2023-04-18T02:01:13.529Z,7.60
2023-04-18T02:02:13.573Z,7.90
2023-04-18T02:03:13.639Z,7.50
2023-04-18T02:04:13.780Z,7.80
2023-04-18T02:05:13.452Z,8.00
2023-04-18T02:06:13.441Z,7.70
2023-04-18T02:07:13.395Z,7.90
2023-04-18T02:08:13.412Z,8.00
2023-04-18T02:09:13.387Z,8.30
2023-04-18T02:10:13.406Z,7.90
2023-04-18T02:11:13.365Z,8.00
2023-04-18T02:12:13.374Z,8.10
2023-04-18T02:13:13.339Z,8.70
2023-04-18T02:14:13.463Z,8.30
2023-04-18T02:15:13.322Z,8.30
2023-04-18T02:16:13.389Z,7.80
2023-04-18T02:17:13.298Z,8.30
2023-04-18T02:18:13.321Z,8.20
2023-04-18T02:19:13.277Z,8.20
2023-04-18T02:20:13.337Z,8.40
2023-04-18T02:21:13.275Z,8.20
2023-04-18T02:22:13.283Z,8.10
2023-04-18T02:23:13.231Z,7.90
2023-04-18T02:24:13.484Z,8.30
2023-04-18T02:25:13.235Z,8.50
2023-04-18T02:26:13.233Z,8.00
2023-04-18T02:27:13.214Z,8.00
2023-04-18T02:28:13.246Z,7.90
2023-04-18T02:29:13.169Z,8.90
2023-04-18T02:30:13.187Z,8.30
2023-04-18T02:31:13.149Z,8.20
2023-04-18T02:32:13.242Z,7.90
2023-04-18T02:33:13.149Z,7.90
2023-04-18T02:34:13.471Z,8.50
2023-04-18T02:35:13.107Z,8.00
2023-04-18T02:36:13.119Z,8.90
2023-04-18T02:37:13.099Z,8.40
2023-04-18T02:38:13.124Z,8.90
2023-04-18T02:39:13.068Z,8.50
2023-04-18T02:40:13.084Z,8.50
2023-04-18T02:41:13.056Z,8.70
2023-04-18T02:42:13.070Z,8.80
2023-04-18T02:43:13.028Z,8.90
2023-04-18T02:44:13.242Z,8.70
2023-04-18T02:45:13.015Z,9.10
2023-04-18T02:46:13.052Z,9.10
2023-04-18T02:47:13.013Z,8.90
2023-04-18T02:48:13.010Z,9.00
2023-04-18T02:49:13.015Z,9.00
2023-04-18T02:50:12.968Z,9.50
2023-04-18T02:51:12.971Z,9.20
2023-04-18T02:52:12.942Z,9.20
2023-04-18T02:53:12.955Z,9.80
2023-04-18T02:54:13.245Z,9.70
2023-04-18T02:55:12.945Z,10.70
2023-04-18T02:56:12.917Z,9.90
2023-04-18T02:57:12.905Z,11.30
2023-04-18T02:58:12.866Z,10.20
2023-04-18T02:59:12.903Z,9.60
2023-04-18T03:00:12.887Z,10.10
2023-04-18T03:01:12.901Z,10.50
2023-04-18T03:02:12.859Z,9.60
2023-04-18T03:03:12.966Z,11.00
2023-04-18T03:04:13.036Z,10.00
2023-04-18T03:05:12.921Z,10.30
2023-04-18T03:06:12.800Z,10.20
2023-04-18T03:07:12.825Z,10.50
2023-04-18T03:08:12.769Z,11.00
2023-04-18T03:09:12.800Z,10.20
2023-04-18T03:10:12.754Z,10.40
2023-04-18T03:11:12.799Z,10.70
2023-04-18T03:12:12.753Z,9.90
2023-04-18T03:13:12.739Z,10.00
2023-04-18T03:14:12.902Z,10.30
2023-04-18T03:15:12.732Z,11.20
2023-04-18T03:16:12.792Z,11.60
2023-04-18T03:17:12.713Z,10.50
2023-04-18T03:18:12.665Z,11.00
2023-04-18T03:19:12.752Z,10.40
2023-04-18T03:20:12.681Z,10.70
2023-04-18T03:21:12.631Z,11.20
2023-04-18T03:22:12.672Z,10.70
2023-04-18T03:23:12.628Z,10.50
2023-04-18T03:24:12.667Z,10.60
2023-04-18T03:25:12.584Z,12.30
2023-04-18T03:26:12.622Z,10.40
2023-04-18T03:27:12.563Z,10.20
2023-04-18T03:28:12.604Z,11.30
2023-04-18T03:29:12.570Z,10.90
2023-04-18T03:30:12.563Z,10.30
2023-04-18T03:31:12.549Z,11.00
2023-04-18T03:32:12.535Z,10.50
2023-04-18T03:33:12.531Z,11.30
2023-04-18T03:34:12.734Z,11.10
2023-04-18T03:35:12.493Z,10.80
2023-04-18T03:36:12.501Z,10.90
2023-04-18T03:37:12.481Z,10.70
2023-04-18T03:38:12.477Z,10.80
2023-04-18T03:39:12.460Z,11.10
2023-04-18T03:40:12.457Z,10.50
2023-04-18T03:41:12.440Z,10.60
2023-04-18T03:42:12.462Z,10.80
2023-04-18T03:43:12.404Z,10.60
2023-04-18T03:44:12.633Z,10.20
2023-04-18T03:45:12.431Z,10.20
2023-04-18T03:46:12.416Z,10.60
2023-04-18T03:47:12.356Z,10.10
2023-04-18T03:48:12.375Z,10.60
2023-04-18T03:49:12.348Z,10.50
2023-04-18T03:50:12.382Z,10.20
2023-04-18T03:51:12.319Z,10.90
2023-04-18T03:52:12.344Z,10.90
2023-04-18T03:53:12.296Z,10.30
2023-04-18T03:54:12.631Z,10.00
2023-04-18T03:55:12.295Z,10.60
2023-04-18T03:56:12.289Z,10.90
2023-04-18T03:57:12.261Z,10.90
2023-04-18T03:58:12.271Z,10.50
2023-04-18T03:59:12.259Z,10.50
2023-04-18T04:00:12.258Z,10.10
2023-04-18T04:01:12.231Z,10.40
2023-04-18T04:02:12.288Z,10.60
2023-04-18T04:03:12.393Z,10.70
2023-04-18T04:04:12.472Z,10.30
2023-04-18T04:05:12.229Z,10.10
2023-04-18T04:06:12.233Z,9.90
2023-04-18T04:07:12.173Z,10.40
2023-04-18T04:08:12.166Z,10.80
2023-04-18T04:09:12.156Z,9.60
2023-04-18T04:10:12.164Z,10.30
2023-04-18T04:11:12.119Z,10.60
2023-04-18T04:12:12.143Z,10.90
2023-04-18T04:13:12.105Z,10.50
2023-04-18T04:14:12.375Z,10.50
2023-04-18T04:15:12.079Z,11.10
2023-04-18T04:16:12.143Z,10.00
2023-04-18T04:17:12.085Z,10.80
2023-04-18T04:18:12.086Z,10.30
2023-04-18T04:19:12.961Z,10.20
2023-04-18T04:20:12.064Z,10.10
2023-04-18T04:21:12.026Z,10.50
2023-04-18T04:22:12.095Z,10.00
2023-04-18T04:23:12.029Z,11.00
2023-04-18T04:24:12.188Z,10.40
2023-04-18T04:25:12.016Z,10.30
2023-04-18T04:26:11.982Z,10.80
2023-04-18T04:27:12.028Z,10.50
2023-04-18T04:28:11.997Z,11.00
2023-04-18T04:29:11.942Z,11.80
2023-04-18T04:30:13.335Z,10.80
2023-04-18T04:31:11.920Z,10.60
2023-04-18T04:32:12.019Z,10.90
2023-04-18T04:33:11.909Z,11.10
2023-04-18T04:34:12.063Z,9.90
2023-04-18T04:35:11.873Z,11.40
2023-04-18T04:36:11.905Z,10.80
2023-04-18T04:37:11.849Z,10.10
2023-04-18T04:38:11.880Z,10.70
2023-04-18T04:39:11.863Z,10.10
2023-04-18T04:40:11.858Z,10.50
2023-04-18T04:41:11.839Z,10.40
2023-04-18T04:42:11.814Z,10.40
2023-04-18T04:43:11.814Z,10.70
2023-04-18T04:44:12.070Z,11.20
2023-04-18T04:45:11.782Z,11.10
2023-04-18T04:46:11.814Z,11.10
2023-04-18T04:47:11.745Z,11.40
2023-04-18T04:48:11.753Z,11.00
2023-04-18T04:49:11.726Z,10.90
2023-04-18T04:50:11.744Z,10.80
2023-04-18T04:51:11.703Z,11.10
2023-04-18T04:52:11.759Z,10.80
2023-04-18T04:53:11.701Z,10.90
2023-04-18T04:54:11.897Z,11.90
2023-04-18T04:55:11.665Z,10.90
2023-04-18T04:56:11.680Z,11.10
2023-04-18T04:57:11.642Z,12.30
2023-04-18T04:58:11.646Z,12.00
2023-04-18T04:59:11.625Z,11.30
2023-04-18T05:00:11.627Z,10.90
2023-04-18T05:01:11.621Z,11.60
2023-04-18T05:02:11.703Z,12.30
2023-04-18T05:03:11.734Z,12.00
2023-04-18T05:04:11.854Z,11.70
2023-04-18T05:05:11.560Z,11.40
2023-04-18T05:06:11.570Z,11.70
2023-04-18T05:07:11.551Z,11.40
2023-04-18T05:08:11.550Z,11.40
2023-04-18T05:09:11.530Z,11.70
2023-04-18T05:10:11.531Z,12.40
2023-04-18T05:11:11.495Z,12.90
2023-04-18T05:12:11.562Z,12.90
2023-04-18T05:13:11.468Z,12.30
2023-04-18T05:14:11.627Z,12.50
2023-04-18T05:15:11.453Z,11.90
2023-04-18T05:16:11.503Z,12.30
2023-04-18T05:17:11.427Z,12.60
2023-04-18T05:18:11.468Z,12.70
2023-04-18T05:19:11.409Z,15.50
2023-04-18T05:20:11.445Z,12.80
2023-04-18T05:21:11.395Z,13.00
2023-04-18T05:22:11.401Z,13.20
2023-04-18T05:23:11.389Z,13.00
2023-04-18T05:24:11.377Z,13.60
2023-04-18T05:25:11.382Z,13.80
2023-04-18T05:26:11.381Z,13.60
2023-04-18T05:27:11.334Z,13.60
2023-04-18T05:28:11.343Z,14.30
2023-04-18T05:29:11.321Z,14.50
2023-04-18T05:30:11.318Z,13.00
2023-04-18T05:31:11.335Z,14.80
2023-04-18T05:32:11.298Z,13.00
2023-04-18T05:33:11.260Z,14.40
2023-04-18T05:34:11.465Z,14.60
2023-04-18T05:35:11.253Z,16.30
2023-04-18T05:36:11.260Z,14.60
2023-04-18T05:37:11.266Z,15.10
2023-04-18T05:38:11.263Z,15.00
2023-04-18T05:39:11.202Z,15.10
2023-04-18T05:40:11.234Z,16.00
2023-04-18T05:41:11.235Z,15.50
2023-04-18T05:42:11.197Z,15.70
2023-04-18T05:43:11.176Z,15.70
2023-04-18T05:44:11.208Z,15.10
2023-04-18T05:45:11.156Z,15.70
2023-04-18T05:46:11.168Z,16.10
2023-04-18T05:47:11.120Z,15.10
2023-04-18T05:48:11.225Z,16.00
2023-04-18T05:49:11.144Z,16.90
2023-04-18T05:50:11.144Z,16.30
2023-04-18T05:51:11.594Z,15.60
2023-04-18T05:52:11.093Z,16.00
2023-04-18T05:53:11.074Z,15.70
2023-04-18T05:54:11.140Z,15.60
2023-04-18T05:55:11.053Z,15.40
2023-04-18T05:56:11.073Z,15.80
2023-04-18T05:57:11.036Z,14.90
2023-04-18T05:58:11.035Z,16.30
2023-04-18T05:59:11.017Z,15.90
2023-04-18T06:00:11.013Z,15.50
2023-04-18T06:01:11.007Z,16.70
2023-04-18T06:02:11.082Z,16.30
2023-04-18T06:03:11.543Z,15.90
2023-04-18T06:04:11.155Z,15.40
2023-04-18T06:05:11.139Z,16.30
2023-04-18T06:06:10.952Z,16.50
2023-04-18T06:07:10.982Z,16.20
2023-04-18T06:08:10.951Z,16.10
2023-04-18T06:09:10.903Z,16.60
2023-04-18T06:10:10.919Z,16.40
2023-04-18T06:11:10.890Z,16.80
2023-04-18T06:12:10.909Z,17.10
2023-04-18T06:13:10.882Z,16.50
2023-04-18T06:14:10.863Z,17.00
2023-04-18T06:15:10.829Z,16.70
2023-04-18T06:16:10.883Z,16.80
2023-04-18T06:17:10.818Z,17.20
2023-04-18T06:18:10.844Z,17.50
2023-04-18T06:19:10.794Z,16.90
2023-04-18T06:20:10.855Z,17.40
2023-04-18T06:21:11.179Z,17.70
2023-04-18T06:22:10.789Z,16.30
2023-04-18T06:23:10.776Z,17.40
2023-04-18T06:24:10.768Z,17.30
2023-04-18T06:25:10.746Z,17.60
2023-04-18T06:26:10.736Z,18.00
2023-04-18T06:27:20.434Z,17.00
2023-04-18T06:28:10.764Z,17.80
2023-04-18T06:29:10.714Z,16.40
2023-04-18T06:30:10.713Z,17.40
2023-04-18T06:31:10.690Z,17.80
2023-04-18T06:32:10.703Z,18.10
2023-04-18T06:33:10.668Z,16.40
2023-04-18T06:34:10.674Z,18.10
2023-04-18T06:35:10.631Z,16.70
2023-04-18T06:36:10.680Z,17.30
2023-04-18T06:37:10.613Z,16.40
2023-04-18T06:38:10.625Z,16.60
2023-04-18T06:39:10.589Z,16.10
2023-04-18T06:40:10.618Z,17.50
2023-04-18T06:41:10.568Z,15.90
2023-04-18T06:42:10.586Z,16.40
2023-04-18T06:43:10.540Z,16.70
2023-04-18T06:44:10.572Z,17.20
2023-04-18T06:45:10.561Z,16.10
2023-04-18T06:46:10.549Z,15.60
2023-04-18T06:47:10.503Z,15.60
2023-04-18T06:48:10.610Z,17.40
2023-04-18T06:49:10.494Z,16.30
2023-04-18T06:50:10.537Z,16.00
2023-04-18T06:51:10.468Z,15.90
2023-04-18T06:52:10.478Z,15.80
2023-04-18T06:53:10.452Z,15.90
2023-04-18T06:54:10.448Z,16.30
2023-04-18T06:55:10.428Z,16.30
2023-04-18T06:56:10.438Z,18.20
2023-04-18T06:57:10.404Z,15.90
2023-04-18T06:58:10.455Z,16.50
2023-04-18T06:59:10.376Z,16.30
2023-04-18T07:00:10.392Z,15.90
2023-04-18T07:01:10.435Z,15.90
2023-04-18T07:02:10.377Z,15.90
2023-04-18T07:03:11.374Z,16.10
2023-04-18T07:04:10.494Z,15.20
2023-04-18T07:05:10.346Z,15.40
2023-04-18T07:06:10.316Z,15.00
2023-04-18T07:07:10.324Z,15.60
2023-04-18T07:08:10.286Z,15.20
2023-04-18T07:09:10.293Z,14.90
2023-04-18T07:10:10.259Z,15.00
2023-04-18T07:11:10.278Z,15.20
2023-04-18T07:12:10.252Z,15.20
2023-04-18T07:13:10.249Z,14.70
2023-04-18T07:14:10.214Z,15.20
2023-04-18T07:15:10.232Z,14.40
2023-04-18T07:16:10.225Z,15.30
2023-04-18T07:17:10.304Z,14.60
2023-04-18T07:18:10.201Z,14.50
2023-04-18T07:19:10.232Z,13.90
2023-04-18T07:20:11.247Z,14.10
2023-04-18T07:21:10.185Z,15.00
2023-04-18T07:22:10.132Z,14.10
2023-04-18T07:23:10.178Z,14.20
2023-04-18T07:24:10.126Z,15.40
2023-04-18T07:25:10.137Z,14.10
2023-04-18T07:26:10.100Z,14.40
2023-04-18T07:27:10.101Z,14.60
2023-04-18T07:28:10.082Z,15.90
2023-04-18T07:29:10.091Z,14.70
2023-04-18T07:30:10.061Z,14.40
2023-04-18T07:31:10.085Z,14.00
2023-04-18T07:32:10.036Z,15.40
2023-04-18T07:33:10.046Z,14.70
2023-04-18T07:34:10.070Z,15.00
2023-04-18T07:35:10.033Z,14.80
2023-04-18T07:36:10.001Z,14.40
2023-04-18T07:37:10.024Z,15.40
2023-04-18T07:38:09.985Z,15.20
2023-04-18T07:39:10.020Z,15.20
2023-04-18T07:40:09.971Z,15.00
2023-04-18T07:41:09.963Z,14.80
2023-04-18T07:42:09.940Z,15.50
2023-04-18T07:43:09.931Z,16.60
2023-04-18T07:44:09.904Z,16.30
2023-04-18T07:45:09.977Z,15.40
2023-04-18T07:46:09.921Z,15.90
2023-04-18T07:47:09.998Z,16.50
2023-04-18T07:48:09.904Z,16.00
2023-04-18T07:49:09.880Z,15.80
2023-04-18T07:50:09.841Z,16.10
2023-04-18T07:51:09.871Z,16.40
2023-04-18T07:52:09.821Z,15.40
2023-04-18T07:53:09.838Z,15.90
2023-04-18T07:54:09.806Z,15.60
2023-04-18T07:55:09.828Z,16.20
2023-04-18T07:56:09.801Z,16.30
2023-04-18T07:57:09.793Z,16.10
2023-04-18T07:58:09.760Z,17.90
2023-04-18T07:59:09.777Z,16.40
2023-04-18T08:00:09.802Z,15.90
2023-04-18T08:01:09.763Z,16.40
2023-04-18T08:02:09.803Z,16.40
2023-04-18T08:03:09.891Z,16.30
2023-04-18T08:04:09.912Z,15.90
2023-04-18T08:05:09.871Z,15.90
2023-04-18T08:06:09.676Z,16.30
2023-04-18T08:07:09.731Z,15.60
2023-04-18T08:08:09.656Z,15.60
2023-04-18T08:09:09.668Z,16.30
2023-04-18T08:10:09.639Z,16.60
2023-04-18T08:11:09.680Z,16.00
2023-04-18T08:12:09.614Z,16.40
2023-04-18T08:13:09.678Z,16.00
2023-04-18T08:14:09.606Z,16.70
2023-04-18T08:15:09.624Z,18.50
2023-04-18T08:16:09.622Z,16.20
2023-04-18T08:17:09.586Z,15.70
2023-04-18T08:18:09.586Z,16.50
2023-04-18T08:19:09.577Z,15.80
2023-04-18T08:20:09.545Z,16.30
2023-04-18T08:21:09.546Z,16.00
2023-04-18T08:22:09.507Z,16.70
2023-04-18T08:23:12.170Z,15.20
2023-04-18T08:24:09.513Z,15.90
2023-04-18T08:25:09.515Z,15.80
2023-04-18T08:26:09.465Z,16.60
2023-04-18T08:27:09.478Z,15.90
2023-04-18T08:28:09.474Z,15.80
2023-04-18T08:29:09.493Z,15.50
2023-04-18T08:30:09.433Z,15.90
2023-04-18T08:31:09.473Z,15.60
2023-04-18T08:32:09.466Z,15.20
2023-04-18T08:33:09.485Z,15.10
2023-04-18T08:34:09.383Z,15.40
2023-04-18T08:35:09.403Z,15.20
2023-04-18T08:36:09.405Z,15.90
2023-04-18T08:37:09.378Z,16.80
2023-04-18T08:38:09.375Z,15.30
2023-04-18T08:39:09.352Z,15.50
2023-04-18T08:40:09.393Z,16.40
2023-04-18T08:41:09.326Z,15.70
2023-04-18T08:42:09.301Z,16.20
2023-04-18T08:43:09.394Z,16.00
2023-04-18T08:44:09.305Z,15.30
2023-04-18T08:45:09.323Z,15.40
2023-04-18T08:46:09.330Z,15.80
2023-04-18T08:47:09.275Z,15.60
2023-04-18T08:48:09.284Z,14.90
2023-04-18T08:49:10.738Z,16.90
2023-04-18T08:50:09.224Z,15.70
2023-04-18T08:51:09.245Z,15.30
2023-04-18T08:52:09.192Z,15.70
2023-04-18T08:53:09.220Z,15.30
2023-04-18T08:54:09.165Z,15.80
2023-04-18T08:55:09.189Z,16.10
2023-04-18T08:56:09.179Z,16.90
2023-04-18T08:57:09.175Z,16.60
2023-04-18T08:58:09.137Z,17.20
2023-04-18T08:59:09.144Z,16.30
2023-04-18T09:00:09.116Z,17.20
2023-04-18T09:01:09.172Z,15.00
2023-04-18T09:02:09.223Z,15.50
2023-04-18T09:03:09.164Z,17.30
2023-04-18T09:04:09.121Z,16.10
2023-04-18T09:05:09.078Z,15.70
2023-04-18T09:06:09.053Z,15.80
2023-04-18T09:07:09.063Z,15.30
2023-04-18T09:08:09.034Z,15.90
2023-04-18T09:09:09.040Z,16.10
2023-04-18T09:10:09.002Z,16.60
2023-04-18T09:11:09.020Z,15.80
2023-04-18T09:12:09.000Z,17.00
2023-04-18T09:13:09.009Z,15.20
2023-04-18T09:14:09.009Z,16.70
2023-04-18T09:15:09.009Z,16.30
2023-04-18T09:16:08.970Z,16.20
2023-04-18T09:17:08.968Z,16.40
2023-04-18T09:18:08.991Z,15.90
2023-04-18T09:19:08.944Z,16.50
2023-04-18T09:20:08.914Z,16.00
2023-04-18T09:21:08.924Z,16.20
2023-04-18T09:22:08.875Z,17.20
2023-04-18T09:23:08.891Z,16.10
2023-04-18T09:24:08.875Z,16.10
2023-04-18T09:25:08.869Z,16.70
2023-04-18T09:26:08.844Z,18.00
2023-04-18T09:27:08.923Z,16.50
2023-04-18T09:28:08.826Z,18.20
2023-04-18T09:29:08.827Z,16.50
2023-04-18T09:30:08.819Z,16.20
2023-04-18T09:31:08.831Z,16.60
2023-04-18T09:32:08.785Z,16.70
2023-04-18T09:33:08.811Z,17.90
2023-04-18T09:34:08.756Z,17.70
2023-04-18T09:35:08.823Z,17.70
2023-04-18T09:36:08.737Z,16.90
2023-04-18T09:37:08.849Z,17.10
2023-04-18T09:38:08.738Z,16.50
2023-04-18T09:39:08.741Z,17.10
2023-04-18T09:40:08.692Z,16.40
2023-04-18T09:41:08.772Z,17.20
2023-04-18T09:42:08.692Z,19.40
2023-04-18T09:43:08.709Z,18.60
2023-04-18T09:44:09.715Z,18.10
2023-04-18T09:45:08.668Z,17.50
2023-04-18T09:46:08.753Z,19.70
2023-04-18T09:47:08.732Z,17.40
2023-04-18T09:48:08.653Z,17.30
2023-04-18T09:49:10.418Z,20.60
2023-04-18T09:50:08.635Z,18.00
2023-04-18T09:51:08.600Z,19.90
2023-04-18T09:52:08.631Z,18.20
2023-04-18T09:53:08.596Z,18.40
2023-04-18T09:54:08.548Z,17.90
2023-04-18T09:55:08.572Z,18.60
2023-04-18T09:56:08.529Z,18.50
2023-04-18T09:57:08.560Z,18.50
2023-04-18T09:58:08.510Z,18.20
2023-04-18T09:59:08.511Z,18.10
2023-04-18T10:00:08.487Z,18.30
2023-04-18T10:01:08.604Z,18.70
2023-04-18T10:02:08.587Z,18.70
2023-04-18T10:03:08.613Z,19.50
2023-04-18T10:04:08.529Z,19.40
2023-04-18T10:05:08.500Z,18.30
2023-04-18T10:06:08.448Z,18.80
2023-04-18T10:07:08.432Z,18.10
2023-04-18T10:08:08.497Z,18.80
2023-04-18T10:09:08.433Z,18.50
2023-04-18T10:10:08.376Z,18.00
2023-04-18T10:11:08.383Z,18.60
2023-04-18T10:12:08.365Z,19.60
2023-04-18T10:13:08.371Z,19.30
2023-04-18T10:14:08.337Z,18.40
2023-04-18T10:15:08.357Z,19.60
2023-04-18T10:16:08.410Z,19.30
2023-04-18T10:17:08.343Z,18.20
2023-04-18T10:18:08.314Z,19.40
2023-04-18T10:19:08.312Z,18.20
2023-04-18T10:20:08.275Z,18.90
2023-04-18T10:21:08.276Z,18.90
2023-04-18T10:22:08.245Z,18.70
2023-04-18T10:23:08.259Z,19.20
2023-04-18T10:24:08.267Z,19.30
2023-04-18T10:25:08.243Z,21.90
2023-04-18T10:26:08.217Z,19.70
2023-04-18T10:27:08.218Z,19.40
2023-04-18T10:28:08.203Z,19.70
2023-04-18T10:29:08.198Z,20.20
2023-04-18T10:30:09.224Z,19.80
2023-04-18T10:31:08.228Z,20.20
2023-04-18T10:32:08.152Z,20.30
2023-04-18T10:33:10.603Z,20.90
2023-04-18T10:34:08.132Z,19.30
2023-04-18T10:35:08.182Z,19.60
2023-04-18T10:36:08.109Z,19.40
2023-04-18T10:37:08.141Z,20.20
2023-04-18T10:38:08.079Z,18.90
2023-04-18T10:39:08.092Z,21.50
2023-04-18T10:40:08.081Z,19.50
2023-04-18T10:41:08.086Z,19.00
2023-04-18T10:42:08.043Z,19.50
2023-04-18T10:43:08.049Z,18.30
2023-04-18T10:44:08.680Z,19.50
2023-04-18T10:45:08.035Z,18.60
2023-04-18T10:46:14.385Z,18.20
2023-04-18T10:47:08.059Z,19.20
2023-04-18T10:48:08.025Z,21.10
2023-04-18T10:49:07.989Z,19.40
2023-04-18T10:50:07.993Z,19.70
2023-04-18T10:51:08.011Z,19.50
2023-04-18T10:52:07.963Z,20.60
2023-04-18T10:53:07.949Z,19.70
2023-04-18T10:54:07.911Z,20.00
2023-04-18T10:55:07.947Z,19.30
2023-04-18T10:56:07.896Z,21.70
2023-04-18T10:57:07.914Z,20.70
2023-04-18T10:58:07.904Z,20.30
2023-04-18T10:59:07.889Z,19.70
2023-04-18T11:00:07.850Z,19.20
2023-04-18T11:01:07.879Z,19.90
2023-04-18T11:02:07.878Z,19.10
2023-04-18T11:03:08.074Z,19.40
2023-04-18T11:04:07.870Z,18.40
2023-04-18T11:05:07.821Z,20.10
2023-04-18T11:06:07.784Z,18.00
2023-04-18T11:07:07.839Z,19.90
2023-04-18T11:08:07.780Z,18.80
2023-04-18T11:09:07.778Z,19.40
2023-04-18T11:10:07.737Z,18.90
2023-04-18T11:11:07.756Z,18.90
2023-04-18T11:12:07.775Z,18.80
2023-04-18T11:13:07.767Z,17.50
2023-04-18T11:14:07.747Z,17.40
2023-04-18T11:15:07.720Z,17.50
2023-04-18T11:16:07.744Z,18.10
2023-04-18T11:17:07.699Z,17.40
2023-04-18T11:18:07.771Z,18.00
2023-04-18T11:19:07.686Z,16.50
2023-04-18T11:20:07.661Z,16.90
2023-04-18T11:21:07.642Z,18.20
2023-04-18T11:22:07.639Z,16.80
2023-04-18T11:23:07.613Z,17.40
2023-04-18T11:24:07.637Z,16.70
2023-04-18T11:25:07.595Z,16.80
2023-04-18T11:26:07.597Z,18.00
2023-04-18T11:27:07.568Z,16.80
2023-04-18T11:28:07.625Z,18.30
2023-04-18T11:29:07.552Z,17.60
2023-04-18T11:30:07.606Z,16.80
2023-04-18T11:31:07.553Z,17.60
2023-04-18T11:32:07.646Z,17.00
2023-04-18T11:33:07.691Z,18.10
2023-04-18T11:34:07.512Z,19.00
2023-04-18T11:35:07.503Z,17.90
2023-04-18T11:36:07.503Z,17.50
2023-04-18T11:37:07.483Z,17.20
2023-04-18T11:38:07.474Z,17.60
2023-04-18T11:39:07.443Z,18.00
2023-04-18T11:40:07.467Z,17.90
2023-04-18T11:41:07.443Z,17.90
2023-04-18T11:42:07.437Z,20.90
2023-04-18T11:43:07.473Z,17.10
2023-04-18T11:44:08.137Z,17.80
2023-04-18T11:45:07.393Z,17.60
2023-04-18T11:46:07.474Z,20.40
2023-04-18T11:47:07.376Z,17.90
2023-04-18T11:48:07.402Z,17.90
2023-04-18T11:49:07.347Z,16.90
2023-04-18T11:50:07.361Z,18.10
2023-04-18T11:51:07.379Z,16.60
2023-04-18T11:52:07.362Z,16.70
2023-04-18T11:53:07.288Z,17.00
2023-04-18T11:54:07.302Z,16.80
2023-04-18T11:55:07.276Z,17.50
2023-04-18T11:56:07.296Z,16.90
2023-04-18T11:57:07.247Z,17.50
2023-04-18T11:58:07.294Z,18.30
2023-04-18T11:59:07.232Z,16.90
2023-04-18T12:00:07.268Z,15.90
2023-04-18T12:01:07.216Z,15.90
2023-04-18T12:02:16.105Z,16.90
2023-04-18T12:03:07.327Z,17.70
2023-04-18T12:04:07.500Z,16.90
2023-04-18T12:05:07.479Z,16.80
2023-04-18T12:06:07.259Z,17.30
2023-04-18T12:07:07.139Z,17.10
2023-04-18T12:08:07.155Z,17.70
2023-04-18T12:09:07.132Z,17.30
2023-04-18T12:10:07.180Z,16.00
2023-04-18T12:11:07.099Z,17.60
2023-04-18T12:12:07.114Z,17.40
2023-04-18T12:13:07.075Z,17.40
2023-04-18T12:14:07.126Z,17.20
2023-04-18T12:15:07.065Z,17.60
2023-04-18T12:16:07.122Z,17.60
2023-04-18T12:17:07.045Z,16.40
2023-04-18T12:18:07.081Z,15.80
2023-04-18T12:19:07.084Z,16.00
2023-04-18T12:20:07.041Z,16.50
2023-04-18T12:21:06.989Z,15.70
2023-04-18T12:22:07.013Z,15.90
2023-04-18T12:23:06.968Z,17.30
2023-04-18T12:24:07.028Z,16.00
2023-04-18T12:25:06.986Z,16.50
2023-04-18T12:26:06.974Z,14.90
2023-04-18T12:27:06.931Z,16.70
2023-04-18T12:28:06.946Z,16.00
2023-04-18T12:29:06.910Z,15.90
2023-04-18T12:30:06.931Z,15.60
2023-04-18T12:31:06.918Z,16.00
2023-04-18T12:32:06.922Z,16.60
2023-04-18T12:33:06.963Z,16.20
2023-04-18T12:34:06.892Z,17.10
2023-04-18T12:35:06.840Z,16.90
2023-04-18T12:36:06.873Z,17.30
2023-04-18T12:37:06.817Z,15.50
2023-04-18T12:38:06.834Z,15.70
2023-04-18T12:39:06.839Z,15.20
2023-04-18T12:40:06.814Z,16.20
2023-04-18T12:41:06.800Z,15.30
2023-04-18T12:42:06.819Z,14.90
2023-04-18T12:43:06.772Z,15.20
2023-04-18T12:44:06.781Z,14.60
2023-04-18T12:45:06.738Z,15.10
2023-04-18T12:46:06.781Z,15.10
2023-04-18T12:47:06.791Z,14.60
2023-04-18T12:48:06.840Z,15.90
2023-04-18T12:49:06.714Z,15.60
2023-04-18T12:50:06.717Z,16.00
2023-04-18T12:51:06.665Z,16.10
2023-04-18T12:52:06.702Z,16.90
2023-04-18T12:53:06.684Z,16.00
2023-04-18T12:54:06.667Z,16.60
2023-04-18T12:55:06.626Z,16.90
2023-04-18T12:56:06.654Z,17.40
2023-04-18T12:57:06.604Z,17.20
2023-04-18T12:58:06.655Z,17.20